createdAt,value
2019-05-12T00:01:13.396Z,101852.27
2019-05-12T00:02:48.613Z,101847.18
2019-05-12T00:04:23.527Z,101848.64
2019-05-12T00:05:58.176Z,101849.11
2019-05-12T00:07:32.975Z,101847.79
2019-05-12T00:09:08.413Z,101850.13
2019-05-12T00:10:43.438Z,101853.36
2019-05-12T00:12:18.501Z,101846.83
2019-05-12T00:13:53.454Z,101854.06
2019-05-12T00:15:28.241Z,101855.79
2019-05-12T00:17:04.331Z,101854.42
2019-05-12T00:18:38.998Z,101855.16
2019-05-12T00:20:14.022Z,101864.03
2019-05-12T00:21:48.667Z,101863.98
2019-05-12T00:23:27.749Z,101866.69
2019-05-12T00:25:00.932Z,101871.75
2019-05-12T00:26:38.189Z,101870.09
2019-05-12T00:28:12.306Z,101872.78
2019-05-12T00:29:48.531Z,101875.71
2019-05-12T00:31:23.284Z,101882.69
2019-05-12T00:32:58.183Z,101882.69
2019-05-12T00:34:32.890Z,101890.39
2019-05-12T00:36:08.098Z,101892.55
2019-05-12T00:37:42.758Z,101895.84
2019-05-12T00:39:19.117Z,101889.48
2019-05-12T00:40:53.910Z,101894.96
2019-05-12T00:42:28.916Z,101900.39
2019-05-12T00:44:03.938Z,101901.00
2019-05-12T00:45:39.209Z,101905.09
2019-05-12T00:47:13.828Z,101906.79
2019-05-12T00:48:48.625Z,101910.33
2019-05-12T00:50:23.245Z,101913.41
2019-05-12T00:51:58.759Z,101917.12
2019-05-12T00:53:39.669Z,101924.62
2019-05-12T00:55:10.433Z,101918.25
2019-05-12T00:56:45.081Z,101922.10
2019-05-12T00:58:19.894Z,101924.55
2019-05-12T00:59:54.516Z,101930.86
2019-05-12T01:01:29.339Z,101930.66
2019-05-12T01:03:03.988Z,101928.83
2019-05-12T01:04:38.844Z,101937.35
2019-05-12T01:06:13.595Z,101937.39
2019-05-12T01:07:51.106Z,101941.24
2019-05-12T01:09:24.874Z,101946.65
2019-05-12T01:10:59.679Z,101946.53
2019-05-12T01:12:34.701Z,101952.44
2019-05-12T01:14:09.533Z,101952.86
2019-05-12T01:15:44.165Z,101949.17
2019-05-12T01:17:19.033Z,101952.86
2019-05-12T01:18:53.693Z,101955.34
2019-05-12T01:20:28.699Z,101955.78
2019-05-12T01:22:03.488Z,101953.96
2019-05-12T01:23:53.421Z,101965.66
2019-05-12T01:25:14.859Z,101963.55
2019-05-12T01:26:49.684Z,101969.34
2019-05-12T01:28:24.319Z,101968.84
2019-05-12T01:29:59.146Z,101966.39
2019-05-12T01:31:37.867Z,101965.41
2019-05-12T01:33:12.738Z,101965.59
2019-05-12T01:34:48.688Z,101969.66
2019-05-12T01:36:23.681Z,101977.11
2019-05-12T01:38:01.365Z,101985.52
2019-05-12T01:39:34.839Z,101984.70
2019-05-12T01:41:09.461Z,101988.67
2019-05-12T01:42:44.382Z,101991.94
2019-05-12T01:44:19.006Z,101996.70
2019-05-12T01:45:53.839Z,101999.15
2019-05-12T01:47:29.118Z,101997.62
2019-05-12T01:49:05.104Z,102001.52
2019-05-12T01:50:39.829Z,102006.59
2019-05-12T01:52:14.822Z,102010.85
2019-05-12T01:53:49.465Z,102017.17
2019-05-12T01:55:24.274Z,102015.13
2019-05-12T01:56:58.936Z,102019.28
2019-05-12T01:58:33.750Z,102026.70
2019-05-12T02:00:10.815Z,102027.53
2019-05-12T02:01:45.649Z,102034.85
2019-05-12T02:03:20.268Z,102034.03
2019-05-12T02:05:08.271Z,102037.98
2019-05-12T02:06:42.200Z,102039.20
2019-05-12T02:08:22.410Z,102042.36
2019-05-12T02:09:58.457Z,102042.87
2019-05-12T02:11:33.317Z,102047.23
2019-05-12T02:13:08.214Z,102057.21
2019-05-12T02:14:43.110Z,102062.50
2019-05-12T02:16:18.825Z,102057.08
2019-05-12T02:17:53.960Z,102058.70
2019-05-12T02:19:28.600Z,102062.05
2019-05-12T02:21:03.429Z,102069.97
2019-05-12T02:22:38.853Z,102068.55
2019-05-12T02:24:26.346Z,102067.43
2019-05-12T02:25:50.232Z,102074.16
2019-05-12T02:27:25.047Z,102069.16
2019-05-12T02:28:59.749Z,102074.00
2019-05-12T02:30:34.694Z,102065.86
2019-05-12T02:32:09.408Z,102071.99
2019-05-12T02:33:44.695Z,102079.38
2019-05-12T02:35:19.609Z,102073.91
2019-05-12T02:36:55.584Z,102081.93
2019-05-12T02:38:30.456Z,102085.30
2019-05-12T02:40:07.047Z,102081.89
2019-05-12T02:41:44.716Z,102089.41
2019-05-12T02:43:18.288Z,102085.36
2019-05-12T02:44:55.194Z,102088.31
2019-05-12T02:46:29.540Z,102091.87
2019-05-12T02:48:05.281Z,102095.50
2019-05-12T02:49:40.529Z,102104.11
2019-05-12T02:51:16.324Z,102106.56
2019-05-12T02:52:54.609Z,102100.78
2019-05-12T02:54:47.034Z,102105.52
2019-05-12T02:56:05.410Z,102108.19
2019-05-12T02:57:40.781Z,102106.79
2019-05-12T02:59:16.568Z,102113.66
2019-05-12T03:00:54.785Z,102118.61
2019-05-12T03:02:29.791Z,102119.61
2019-05-12T03:04:06.002Z,102120.54
2019-05-12T03:05:44.185Z,102125.73
2019-05-12T03:07:18.796Z,102126.89
2019-05-12T03:08:55.056Z,102123.56
2019-05-12T03:10:29.913Z,102127.95
2019-05-12T03:12:06.077Z,102122.70
2019-05-12T03:13:40.852Z,102130.53
2019-05-12T03:15:15.758Z,102129.94
2019-05-12T03:16:50.422Z,102120.98
2019-05-12T03:18:25.693Z,102132.66
2019-05-12T03:20:00.362Z,102129.84
2019-05-12T03:21:35.825Z,102134.42
2019-05-12T03:23:10.720Z,102134.66
2019-05-12T03:24:45.569Z,102139.45
2019-05-12T03:26:20.195Z,102139.45
2019-05-12T03:27:55.041Z,102143.89
2019-05-12T03:29:29.668Z,102145.20
2019-05-12T03:31:07.828Z,102143.73
2019-05-12T03:32:46.708Z,102144.20
2019-05-12T03:34:19.448Z,102142.17
2019-05-12T03:36:00.192Z,102149.27
2019-05-12T03:37:31.307Z,102154.95
2019-05-12T03:39:08.143Z,102153.20
2019-05-12T03:40:45.073Z,102158.97
2019-05-12T03:42:19.409Z,102160.47
2019-05-12T03:43:54.993Z,102160.20
2019-05-12T03:45:29.769Z,102166.55
2019-05-12T03:47:05.197Z,102158.64
2019-05-12T03:48:40.031Z,102158.95
2019-05-12T03:50:15.112Z,102164.59
2019-05-12T03:51:49.863Z,102167.08
2019-05-12T03:53:25.125Z,102177.34
2019-05-12T03:54:59.848Z,102172.07
2019-05-12T03:56:35.116Z,102178.62
2019-05-12T04:00:50.562Z,102181.91
2019-05-12T04:02:25.397Z,102182.89
2019-05-12T04:04:00.039Z,102186.75
2019-05-12T04:05:35.629Z,102188.91
2019-05-12T04:07:10.416Z,102190.31
2019-05-12T04:08:45.799Z,102197.57
2019-05-12T04:10:20.561Z,102194.98
2019-05-12T04:11:55.388Z,102198.63
2019-05-12T04:13:30.107Z,102203.48
2019-05-12T04:15:05.483Z,102206.86
2019-05-12T04:16:40.222Z,102210.83
2019-05-12T04:18:16.073Z,102214.94
2019-05-12T04:19:51.396Z,102216.39
2019-05-12T04:21:26.340Z,102218.05
2019-05-12T04:23:00.961Z,102224.38
2019-05-12T04:24:36.026Z,102223.89
2019-05-12T04:26:15.760Z,102224.16
2019-05-12T04:27:47.262Z,102221.81
2019-05-12T04:29:25.051Z,102224.22
2019-05-12T04:30:58.445Z,102223.22
2019-05-12T04:32:35.703Z,102232.66
2019-05-12T04:34:14.298Z,102231.45
2019-05-12T04:35:45.987Z,102238.22
2019-05-12T04:37:20.817Z,102243.10
2019-05-12T04:38:55.910Z,102246.00
2019-05-12T04:40:30.735Z,102249.38
2019-05-12T04:42:05.573Z,102247.48
2019-05-12T04:43:40.631Z,102248.52
2019-05-12T04:45:16.045Z,102253.16
2019-05-12T04:46:51.307Z,102257.60
2019-05-12T04:48:26.165Z,102261.13
2019-05-12T04:50:01.281Z,102259.48
2019-05-12T04:51:36.010Z,102263.30
2019-05-12T04:53:14.192Z,102264.56
2019-05-12T04:54:47.386Z,102265.81
2019-05-12T04:56:24.904Z,102265.81
2019-05-12T04:57:58.770Z,102267.97
2019-05-12T04:59:34.573Z,102264.20
2019-05-12T05:01:09.514Z,102264.20
2019-05-12T05:02:45.676Z,102264.77
2019-05-12T05:04:20.495Z,102279.12
2019-05-12T05:05:55.691Z,102282.17
2019-05-12T05:07:30.342Z,102281.96
2019-05-12T05:09:08.071Z,102290.38
2019-05-12T05:10:44.387Z,102288.97
2019-05-12T05:12:19.726Z,102297.77
2019-05-12T05:13:54.964Z,102296.56
2019-05-12T05:15:30.373Z,102301.46
2019-05-12T05:17:05.852Z,102301.46
2019-05-12T05:18:43.775Z,102302.00
2019-05-12T05:20:17.772Z,102308.30
2019-05-12T05:21:54.157Z,102314.45
2019-05-12T05:23:28.886Z,102315.58
2019-05-12T05:25:04.426Z,102315.80
2019-05-12T05:26:39.103Z,102320.55
2019-05-12T05:28:14.884Z,102323.88
2019-05-12T05:29:49.491Z,102328.27
2019-05-12T05:31:24.716Z,102332.05
2019-05-12T05:32:59.383Z,102329.53
2019-05-12T05:34:34.608Z,102329.53
2019-05-12T05:36:15.128Z,102331.77
2019-05-12T05:37:46.612Z,102326.05
2019-05-12T05:39:21.325Z,102336.23
2019-05-12T05:40:59.792Z,102339.56
2019-05-12T05:42:35.526Z,102346.13
2019-05-12T05:44:09.796Z,102361.63
2019-05-12T05:45:44.833Z,102361.63
2019-05-12T05:47:25.679Z,102357.47
2019-05-12T05:48:56.399Z,102357.25
2019-05-12T05:50:31.600Z,102373.89
2019-05-12T05:52:06.235Z,102380.74
2019-05-12T05:53:41.446Z,102386.52
2019-05-12T05:55:20.142Z,102386.52
2019-05-12T05:56:59.650Z,102381.20
2019-05-12T05:58:29.969Z,102378.81
2019-05-12T06:00:07.126Z,102382.72
2019-05-12T06:01:46.910Z,102380.08
2019-05-12T06:03:27.785Z,102385.97
2019-05-12T06:04:56.793Z,102377.55
2019-05-12T06:06:34.049Z,102384.94
2019-05-12T06:08:14.367Z,102388.73
2019-05-12T06:09:45.203Z,102393.77
2019-05-12T06:11:26.563Z,102398.28
2019-05-12T06:12:56.761Z,102401.75
2019-05-12T06:14:34.045Z,102402.56
2019-05-12T06:16:11.728Z,102409.90
2019-05-12T06:17:44.789Z,102410.91
2019-05-12T06:19:23.154Z,102405.58
2019-05-12T06:20:56.393Z,102410.66
2019-05-12T06:22:33.805Z,102409.92
2019-05-12T06:24:15.655Z,102403.09
2019-05-12T06:25:51.411Z,102408.72
2019-05-12T06:27:21.362Z,102416.17
2019-05-12T06:28:57.882Z,102411.23
2019-05-12T06:30:35.797Z,102420.13
2019-05-12T06:32:11.013Z,102417.25
2019-05-12T06:33:46.200Z,102418.33
2019-05-12T06:35:21.420Z,102411.95
2019-05-12T06:36:57.445Z,102412.26
2019-05-12T06:38:37.207Z,102410.13
2019-05-12T06:40:10.307Z,102410.08
2019-05-12T06:41:45.494Z,102421.16
2019-05-12T06:43:20.174Z,102417.19
2019-05-12T06:44:58.192Z,102423.84
2019-05-12T06:46:34.085Z,102425.76
2019-05-12T06:48:08.661Z,102431.06
2019-05-12T06:49:43.981Z,102417.27
2019-05-12T06:51:23.764Z,102426.91
2019-05-12T06:52:55.664Z,102419.58
2019-05-12T06:54:30.892Z,102424.86
2019-05-12T06:56:09.470Z,102417.64
2019-05-12T06:57:48.110Z,102431.22
2019-05-12T06:59:18.840Z,102433.59
2019-05-12T07:00:54.128Z,102431.45
2019-05-12T07:02:30.307Z,102436.11
2019-05-12T07:04:09.984Z,102429.58
2019-05-12T07:05:45.219Z,102443.44
2019-05-12T07:07:19.876Z,102438.29
2019-05-12T07:09:03.562Z,102439.92
2019-05-12T07:10:40.489Z,102437.81
2019-05-12T07:12:08.775Z,102451.90
2019-05-12T07:13:43.981Z,102449.44
2019-05-12T07:15:18.674Z,102448.09
2019-05-12T07:17:01.755Z,102454.89
2019-05-12T07:18:36.986Z,102465.14
2019-05-12T07:20:10.151Z,102461.39
2019-05-12T07:21:44.766Z,102459.02
2019-05-12T07:23:25.868Z,102444.14
2019-05-12T07:24:56.380Z,102442.77
2019-05-12T07:26:33.758Z,102451.80
2019-05-12T07:28:08.384Z,102450.66
2019-05-12T07:29:43.770Z,102458.91
2019-05-12T07:31:18.776Z,102461.91
2019-05-12T07:32:59.356Z,102461.22
2019-05-12T07:34:30.635Z,102465.91
2019-05-12T07:36:06.635Z,102454.64
2019-05-12T07:37:43.600Z,102461.06
2019-05-12T07:39:20.586Z,102457.71
2019-05-12T07:41:00.398Z,102455.68
2019-05-12T07:42:39.380Z,102461.51
2019-05-12T07:44:09.365Z,102463.10
2019-05-12T07:45:46.912Z,102463.53
2019-05-12T07:47:27.231Z,102460.92
2019-05-12T07:48:58.494Z,102472.22
2019-05-12T07:50:34.475Z,102479.41
2019-05-12T07:52:10.022Z,102467.14
2019-05-12T07:53:46.837Z,102465.53
2019-05-12T07:55:23.600Z,102473.22
2019-05-12T07:57:05.378Z,102471.20
2019-05-12T07:58:35.789Z,102476.21
2019-05-12T08:00:21.056Z,102469.68
2019-05-12T08:01:52.061Z,102475.20
2019-05-12T08:03:25.224Z,102465.22
2019-05-12T08:05:00.579Z,102464.47
2019-05-12T08:06:41.730Z,102461.81
2019-05-12T08:08:14.287Z,102472.41
2019-05-12T08:09:48.530Z,102466.94
2019-05-12T08:11:28.704Z,102475.59
2019-05-12T08:13:00.912Z,102479.63
2019-05-12T08:14:36.251Z,102475.84
2019-05-12T08:16:10.893Z,102474.27
2019-05-12T08:17:49.271Z,102479.17
2019-05-12T08:19:25.505Z,102486.78
2019-05-12T08:21:00.162Z,102475.38
2019-05-12T08:22:59.684Z,102473.77
2019-05-12T08:24:35.394Z,102479.70
2019-05-12T08:26:18.401Z,102475.89
2019-05-12T08:27:50.273Z,102478.15
2019-05-12T08:29:24.310Z,102484.44
2019-05-12T08:31:00.698Z,102479.51
2019-05-12T08:32:35.353Z,102481.44
2019-05-12T08:34:10.555Z,102480.22
2019-05-12T08:35:45.211Z,102478.72
2019-05-12T08:37:20.405Z,102481.61
2019-05-12T08:38:55.060Z,102478.36
2019-05-12T08:40:30.338Z,102480.96
2019-05-12T08:42:05.192Z,102481.47
2019-05-12T08:43:45.833Z,102482.23
2019-05-12T08:45:27.365Z,102468.38
2019-05-12T08:46:56.498Z,102474.05
2019-05-12T08:48:30.116Z,102476.32
2019-05-12T08:50:05.581Z,102470.72
2019-05-12T08:51:40.256Z,102472.80
2019-05-12T08:53:20.726Z,102471.65
2019-05-12T08:54:53.627Z,102466.41
2019-05-12T08:56:28.930Z,102475.95
2019-05-12T08:58:03.898Z,102477.30
2019-05-12T08:59:39.272Z,102478.55
2019-05-12T09:01:14.049Z,102477.23
2019-05-12T09:02:50.652Z,102476.77
2019-05-12T09:04:25.429Z,102483.28
2019-05-12T09:06:00.812Z,102485.98
2019-05-12T09:07:39.723Z,102478.23
2019-05-12T09:09:13.960Z,102485.61
2019-05-12T09:10:51.886Z,102499.99
2019-05-12T09:12:25.596Z,102500.87
2019-05-12T09:14:03.617Z,102500.04
2019-05-12T09:15:38.416Z,102495.69
2019-05-12T09:17:13.886Z,102495.75
2019-05-12T09:18:49.195Z,102494.09
2019-05-12T09:20:24.217Z,102494.45
2019-05-12T09:22:05.545Z,102498.28
2019-05-12T09:23:41.041Z,102502.78
2019-05-12T09:25:14.476Z,102496.67
2019-05-12T09:26:49.337Z,102498.39
2019-05-12T09:28:24.575Z,102506.47
2019-05-12T09:30:08.058Z,102505.86
2019-05-12T09:31:36.526Z,102495.05
2019-05-12T09:33:11.288Z,102498.69
2019-05-12T09:34:52.629Z,102501.69
2019-05-12T09:36:24.344Z,102504.58
2019-05-12T09:38:02.887Z,102497.80
2019-05-12T09:39:42.442Z,102500.00
2019-05-12T09:41:14.071Z,102499.75
2019-05-12T09:42:48.983Z,102495.30
2019-05-12T09:44:26.525Z,102497.20
2019-05-12T09:46:00.591Z,102506.22
2019-05-12T09:47:35.783Z,102503.66
2019-05-12T09:49:10.411Z,102514.13
2019-05-12T09:50:46.528Z,102506.95
2019-05-12T09:52:23.214Z,102507.89
2019-05-12T09:53:58.175Z,102503.67
2019-05-12T09:55:34.302Z,102503.91
2019-05-12T09:57:09.647Z,102512.77
2019-05-12T09:58:57.263Z,102503.31
2019-05-12T10:00:23.829Z,102505.98
2019-05-12T10:01:57.952Z,102508.67
2019-05-12T10:03:38.781Z,102513.20
2019-05-12T10:05:09.889Z,102515.75
2019-05-12T10:06:45.086Z,102517.03
2019-05-12T10:08:19.787Z,102518.29
2019-05-12T10:09:58.969Z,102514.55
2019-05-12T10:11:31.377Z,102512.08
2019-05-12T10:13:06.668Z,102513.27
2019-05-12T10:14:45.863Z,102514.58
2019-05-12T10:16:18.214Z,102515.75
2019-05-12T10:17:54.027Z,102514.67
2019-05-12T10:19:29.329Z,102521.23
2019-05-12T10:21:04.174Z,102525.98
2019-05-12T10:22:40.159Z,102517.31
2019-05-12T10:24:15.200Z,102526.98
2019-05-12T10:25:50.570Z,102534.99
2019-05-12T10:27:30.106Z,102538.52
2019-05-12T10:29:14.242Z,102537.36
2019-05-12T10:30:38.530Z,102541.08
2019-05-12T10:32:13.875Z,102541.73
2019-05-12T10:33:48.880Z,102540.66
2019-05-12T10:35:26.873Z,102535.52
2019-05-12T10:37:03.764Z,102533.52
2019-05-12T10:38:40.282Z,102532.94
2019-05-12T10:40:15.697Z,102526.17
2019-05-12T10:41:51.054Z,102523.28
2019-05-12T10:43:25.787Z,102516.92
2019-05-12T10:45:00.997Z,102527.14
2019-05-12T10:46:35.713Z,102525.33
2019-05-12T10:48:11.026Z,102540.38
2019-05-12T10:49:45.671Z,102539.30
2019-05-12T10:51:20.894Z,102536.73
2019-05-12T10:52:55.638Z,102540.16
2019-05-12T10:54:30.872Z,102535.78
2019-05-12T10:56:05.555Z,102546.77
2019-05-12T10:57:40.798Z,102552.25
2019-05-12T10:59:29.108Z,102548.50
2019-05-12T11:00:53.670Z,102548.18
2019-05-12T11:02:30.465Z,102539.02
2019-05-12T11:04:05.513Z,102552.48
2019-05-12T11:05:41.195Z,102546.80
2019-05-12T11:07:16.417Z,102549.02
2019-05-12T11:08:51.358Z,102540.67
2019-05-12T11:10:26.892Z,102553.34
2019-05-12T11:12:03.468Z,102545.94
2019-05-12T11:13:40.181Z,102544.33
2019-05-12T11:15:15.417Z,102547.80
2019-05-12T11:16:50.656Z,102552.03
2019-05-12T11:18:30.325Z,102561.97
2019-05-12T11:20:04.131Z,102561.28
2019-05-12T11:21:38.587Z,102557.73
2019-05-12T11:23:13.955Z,102563.02
2019-05-12T11:24:48.629Z,102566.27
2019-05-12T11:26:23.865Z,102563.30
2019-05-12T11:27:58.579Z,102560.61
2019-05-12T11:29:45.710Z,102566.53
2019-05-12T11:31:10.275Z,102561.67
2019-05-12T11:32:45.616Z,102553.84
2019-05-12T11:34:20.307Z,102554.64
2019-05-12T11:35:55.509Z,102559.52
2019-05-12T11:37:41.561Z,102563.88
2019-05-12T11:39:16.819Z,102550.84
2019-05-12T11:40:53.705Z,102563.95
2019-05-12T11:42:28.393Z,102564.48
2019-05-12T11:44:03.970Z,102565.22
2019-05-12T11:45:39.293Z,102565.44
2019-05-12T11:47:23.554Z,102561.36
2019-05-12T11:48:50.844Z,102561.06
2019-05-12T11:50:25.573Z,102553.47
2019-05-12T11:52:05.745Z,102558.48
2019-05-12T11:53:37.175Z,102553.83
2019-05-12T11:55:13.508Z,102553.83
2019-05-12T11:56:50.355Z,102565.45
2019-05-12T11:58:25.631Z,102570.83
2019-05-12T12:00:02.274Z,102575.97
2019-05-12T12:01:39.562Z,102571.38
2019-05-12T12:03:17.977Z,102572.96
2019-05-12T12:04:54.225Z,102567.25
2019-05-12T12:06:27.964Z,102581.08
2019-05-12T12:08:03.932Z,102589.44
2019-05-12T12:09:38.809Z,102581.51
2019-05-12T12:11:18.603Z,102576.02
2019-05-12T12:12:50.411Z,102582.18
2019-05-12T12:14:25.636Z,102582.18
2019-05-12T12:16:05.577Z,102579.30
2019-05-12T12:17:37.225Z,102574.88
2019-05-12T12:19:11.903Z,102572.48
2019-05-12T12:20:47.867Z,102565.87
2019-05-12T12:22:28.092Z,102570.16
2019-05-12T12:23:59.665Z,102574.16
2019-05-12T12:25:34.530Z,102580.70
2019-05-12T12:27:09.861Z,102580.78
2019-05-12T12:28:44.527Z,102584.61
2019-05-12T12:30:20.338Z,102577.57
2019-05-12T12:31:55.872Z,102567.55
2019-05-12T12:33:36.078Z,102577.70
2019-05-12T12:35:11.911Z,102583.59
2019-05-12T12:36:44.443Z,102582.16
2019-05-12T12:38:19.065Z,102578.13
2019-05-12T12:39:54.273Z,102581.31
2019-05-12T12:41:28.941Z,102581.31
2019-05-12T12:43:04.216Z,102584.20
2019-05-12T12:44:39.816Z,102583.17
2019-05-12T12:46:24.244Z,102592.49
2019-05-12T12:47:58.601Z,102585.94
2019-05-12T12:49:34.047Z,102586.30
2019-05-12T12:51:09.103Z,102584.55
2019-05-12T12:52:48.705Z,102584.55
2019-05-12T12:54:20.738Z,102592.61
2019-05-12T12:55:58.355Z,102602.70
2019-05-12T12:57:33.494Z,102599.45
2019-05-12T12:59:10.581Z,102603.59
2019-05-12T13:00:48.003Z,102600.48
2019-05-12T13:02:24.759Z,102612.09
2019-05-12T13:04:04.444Z,102606.20
2019-05-12T13:05:35.927Z,102610.34
2019-05-12T13:07:10.927Z,102606.72
2019-05-12T13:08:45.754Z,102606.72
2019-05-12T13:10:20.862Z,102601.45
2019-05-12T13:11:55.688Z,102608.37
2019-05-12T13:13:30.737Z,102597.27
2019-05-12T13:15:06.147Z,102617.58
2019-05-12T13:16:43.667Z,102624.92
2019-05-12T13:18:25.785Z,102618.59
2019-05-12T13:19:58.706Z,102613.91
2019-05-12T13:21:33.569Z,102620.91
2019-05-12T13:23:08.814Z,102620.91
2019-05-12T13:24:44.022Z,102619.05
2019-05-12T13:26:19.170Z,102623.50
2019-05-12T13:27:53.999Z,102616.47
2019-05-12T13:29:35.442Z,102619.33
2019-05-12T13:31:13.045Z,102614.77
2019-05-12T13:32:44.136Z,102616.72
2019-05-12T13:34:19.974Z,102616.00
2019-05-12T13:35:57.497Z,102616.22
2019-05-12T13:37:33.710Z,102616.19
2019-05-12T13:39:11.470Z,102616.19
2019-05-12T13:40:45.054Z,102616.89
2019-05-12T13:42:20.093Z,102618.91
2019-05-12T13:43:59.703Z,102628.22
2019-05-12T13:45:33.562Z,102628.22
2019-05-12T13:47:08.197Z,102632.55
2019-05-12T13:48:43.449Z,102626.31
2019-05-12T13:50:21.679Z,102629.31
2019-05-12T13:51:55.042Z,102632.53
2019-05-12T13:53:29.927Z,102643.06
2019-05-12T13:55:07.522Z,102626.63
2019-05-12T13:56:44.117Z,102638.76
2019-05-12T13:58:18.502Z,102624.40
2019-05-12T14:00:05.774Z,102637.47
2019-05-12T14:01:31.965Z,102644.89
2019-05-12T14:03:09.439Z,102650.41
2019-05-12T14:04:44.409Z,102655.98
2019-05-12T14:06:23.060Z,102656.86
2019-05-12T14:07:57.421Z,102658.83
2019-05-12T14:09:34.324Z,102659.78
2019-05-12T14:11:09.181Z,102657.30
2019-05-12T14:12:44.192Z,102659.17
2019-05-12T14:14:19.304Z,102656.42
2019-05-12T14:15:54.160Z,102655.94
2019-05-12T14:17:31.116Z,102643.84
2019-05-12T14:19:05.801Z,102656.81
2019-05-12T14:20:44.891Z,102655.38
2019-05-12T14:22:21.301Z,102652.86
2019-05-12T14:23:54.044Z,102653.87
2019-05-12T14:25:32.177Z,102659.17
2019-05-12T14:27:05.666Z,102660.61
2019-05-12T14:28:45.539Z,102674.05
2019-05-12T14:30:17.225Z,102674.05
2019-05-12T14:31:56.653Z,102666.70
2019-05-12T14:33:37.921Z,102672.57
2019-05-12T14:35:07.072Z,102669.97
2019-05-12T14:36:43.376Z,102667.75
2019-05-12T14:38:19.424Z,102671.37
2019-05-12T14:39:55.005Z,102673.23
2019-05-12T14:41:29.888Z,102679.05
2019-05-12T14:43:04.920Z,102679.05
2019-05-12T14:44:44.993Z,102674.37
2019-05-12T14:46:16.503Z,102675.94
2019-05-12T14:47:51.355Z,102674.21
2019-05-12T14:49:30.377Z,102677.31
2019-05-12T14:51:03.462Z,102674.39
2019-05-12T14:52:38.581Z,102670.83
2019-05-12T14:54:13.606Z,102673.05
2019-05-12T14:55:48.776Z,102674.02
2019-05-12T14:57:24.376Z,102673.69
2019-05-12T14:59:00.884Z,102668.19
2019-05-12T15:00:35.854Z,102671.25
2019-05-12T15:02:10.908Z,102663.04
2019-05-12T15:03:47.841Z,102668.25
2019-05-12T15:05:25.306Z,102665.26
2019-05-12T15:06:59.645Z,102679.16
2019-05-12T15:08:39.995Z,102678.22
2019-05-12T15:10:14.368Z,102678.30
2019-05-12T15:11:49.276Z,102674.63
2019-05-12T15:13:24.203Z,102684.08
2019-05-12T15:14:59.293Z,102668.00
2019-05-12T15:16:40.369Z,102674.59
2019-05-12T15:18:13.150Z,102666.66
2019-05-12T15:19:47.452Z,102668.69
2019-05-12T15:21:27.302Z,102674.84
2019-05-12T15:22:59.064Z,102668.74
2019-05-12T15:24:34.432Z,102682.47
2019-05-12T15:26:14.518Z,102686.16
2019-05-12T15:27:48.490Z,102686.71
2019-05-12T15:29:23.430Z,102682.56
2019-05-12T15:31:00.505Z,102688.01
2019-05-12T15:32:35.160Z,102679.23
2019-05-12T15:34:10.131Z,102677.55
2019-05-12T15:35:44.956Z,102672.48
2019-05-12T15:37:19.981Z,102673.63
2019-05-12T15:38:58.758Z,102674.63
2019-05-12T15:40:31.601Z,102688.45
2019-05-12T15:42:06.427Z,102692.91
2019-05-12T15:43:44.189Z,102678.31
2019-05-12T15:45:18.083Z,102683.14
2019-05-12T15:46:53.573Z,102684.14
2019-05-12T15:48:28.590Z,102680.39
2019-05-12T15:50:04.137Z,102685.83
2019-05-12T15:51:44.488Z,102692.00
2019-05-12T15:53:21.963Z,102684.25
2019-05-12T15:54:54.003Z,102698.27
2019-05-12T15:56:29.079Z,102689.27
2019-05-12T15:58:05.834Z,102697.78
2019-05-12T15:59:40.773Z,102696.42
2019-05-12T16:01:17.124Z,102700.84
2019-05-12T16:02:53.416Z,102707.41
2019-05-12T16:04:28.467Z,102719.45
2019-05-12T16:06:10.218Z,102712.22
2019-05-12T16:07:40.264Z,102714.08
2019-05-12T16:09:15.353Z,102712.01
2019-05-12T16:10:50.202Z,102715.86
2019-05-12T16:12:26.848Z,102719.69
2019-05-12T16:14:03.202Z,102722.67
2019-05-12T16:15:39.232Z,102723.48
2019-05-12T16:17:18.983Z,102726.30
2019-05-12T16:18:50.856Z,102717.75
2019-05-12T16:20:25.626Z,102726.16
2019-05-12T16:22:00.724Z,102723.88
2019-05-12T16:23:36.642Z,102725.06
2019-05-12T16:25:14.844Z,102731.75
2019-05-12T16:26:53.043Z,102738.95
2019-05-12T16:28:26.683Z,102735.34
2019-05-12T16:30:04.548Z,102732.58
2019-05-12T16:31:39.451Z,102740.50
2019-05-12T16:33:20.538Z,102732.31
2019-05-12T16:34:53.762Z,102734.04
2019-05-12T16:36:28.565Z,102741.78
2019-05-12T16:38:13.887Z,102738.23
2019-05-12T16:39:47.186Z,102746.83
2019-05-12T16:41:19.928Z,102745.61
2019-05-12T16:42:59.718Z,102740.17
2019-05-12T16:44:31.599Z,102747.48
2019-05-12T16:46:06.420Z,102746.80
2019-05-12T16:47:41.464Z,102746.80
2019-05-12T16:49:16.293Z,102745.33
2019-05-12T16:50:51.376Z,102745.33
2019-05-12T16:52:26.220Z,102739.34
2019-05-12T16:54:03.484Z,102751.95
2019-05-12T16:55:48.122Z,102758.29
2019-05-12T16:57:18.201Z,102749.34
2019-05-12T16:58:54.012Z,102756.69
2019-05-12T17:00:30.986Z,102765.11
2019-05-12T17:02:09.650Z,102763.64
2019-05-12T17:03:41.456Z,102756.98
2019-05-12T17:05:20.238Z,102766.34
2019-05-12T17:06:53.188Z,102746.81
2019-05-12T17:08:28.024Z,102760.50
2019-05-12T17:10:11.573Z,102765.67
2019-05-12T17:11:48.942Z,102767.72
2019-05-12T17:13:16.434Z,102767.72
2019-05-12T17:14:53.283Z,102767.23
2019-05-12T17:16:28.002Z,102767.23
2019-05-12T17:18:04.434Z,102774.04
2019-05-12T17:19:39.700Z,102774.04
2019-05-12T17:21:14.560Z,102776.30
2019-05-12T17:22:54.544Z,102776.30
2019-05-12T17:24:26.145Z,102785.97
2019-05-12T17:26:03.619Z,102785.97
2019-05-12T17:27:38.051Z,102785.52
2019-05-12T17:29:13.892Z,102785.52
2019-05-12T17:30:48.861Z,102796.73
2019-05-12T17:32:23.991Z,102796.44
2019-05-12T17:34:00.203Z,102796.44
2019-05-12T17:35:35.604Z,102795.58
2019-05-12T17:37:10.556Z,102796.67
2019-05-12T17:38:45.597Z,102796.67
2019-05-12T17:40:20.550Z,102802.16
2019-05-12T17:41:55.706Z,102797.30
2019-05-12T17:43:30.565Z,102812.73
2019-05-12T17:45:09.390Z,102812.73
2019-05-12T17:46:44.123Z,102814.37
2019-05-12T17:48:19.328Z,102816.09
2019-05-12T17:49:54.167Z,102816.63
2019-05-12T17:51:30.865Z,102816.63
2019-05-12T17:53:05.853Z,102817.23
2019-05-12T17:54:43.231Z,102816.70
2019-05-12T17:56:17.465Z,102816.70
2019-05-12T17:57:56.413Z,102812.96
2019-05-12T17:59:29.567Z,102812.96
2019-05-12T18:01:04.840Z,102825.89
2019-05-12T18:02:39.639Z,102825.89
2019-05-12T18:04:14.707Z,102820.41
2019-05-12T18:05:49.872Z,102817.72
2019-05-12T18:07:24.962Z,102840.92
2019-05-12T18:08:59.823Z,102829.39
2019-05-12T18:10:37.842Z,102829.39
2019-05-12T18:12:13.669Z,102840.94
2019-05-12T18:13:48.121Z,102840.94
2019-05-12T18:15:32.162Z,102840.94